createdAt,value
2023-05-01T00:00:53.972Z,3.53
2023-05-01T00:03:39.581Z,4.28
2023-05-01T00:06:26.203Z,6.45
2023-05-01T00:09:11.913Z,4.50
2023-05-01T00:11:57.439Z,4.78
2023-05-01T00:14:42.965Z,3.72
2023-05-01T00:17:29.135Z,4.38
2023-05-01T00:20:14.798Z,4.43
2023-05-01T00:23:00.142Z,4.03
2023-05-01T00:25:45.578Z,4.30
2023-05-01T00:28:31.378Z,4.95
2023-05-01T00:31:18.511Z,4.53
2023-05-01T00:34:05.192Z,5.72
2023-05-01T00:36:51.502Z,3.60
2023-05-01T00:39:37.166Z,3.60
2023-05-01T00:42:22.650Z,3.45
2023-05-01T00:45:08.950Z,4.18
2023-05-01T00:47:54.433Z,4.65
2023-05-01T00:50:41.094Z,3.25
2023-05-01T00:53:28.342Z,3.67
2023-05-01T00:56:15.069Z,4.57
2023-05-01T00:59:01.251Z,4.50
2023-05-01T01:01:47.383Z,4.53
2023-05-01T01:04:34.537Z,4.38
2023-05-01T01:07:40.063Z,3.92
2023-05-01T01:10:41.014Z,3.78
2023-05-01T01:13:32.487Z,4.38
2023-05-01T01:16:45.413Z,5.45
2023-05-01T01:19:43.081Z,3.72
2023-05-01T01:22:29.922Z,3.65
2023-05-01T01:25:28.130Z,4.95
2023-05-01T01:28:14.012Z,4.78
2023-05-01T01:31:14.693Z,4.35
2023-05-01T01:34:24.926Z,5.93
2023-05-01T01:37:17.555Z,5.63
2023-05-01T01:40:17.309Z,4.68
2023-05-01T01:43:07.761Z,6.10
2023-05-01T01:45:59.496Z,5.07
2023-05-01T01:48:49.023Z,6.38
2023-05-01T01:51:37.983Z,4.90
2023-05-01T01:54:33.085Z,6.35
2023-05-01T01:57:20.975Z,4.57
2023-05-01T02:00:11.182Z,4.50
2023-05-01T02:03:03.714Z,4.13
2023-05-01T02:05:52.272Z,6.43
2023-05-01T02:08:38.434Z,5.32
2023-05-01T02:11:25.222Z,5.50
2023-05-01T02:14:13.407Z,6.00
2023-05-01T02:16:59.800Z,6.10
2023-05-01T02:19:46.653Z,6.65
2023-05-01T02:22:33.685Z,7.07
2023-05-01T02:25:19.292Z,5.93
2023-05-01T02:28:12.278Z,5.20
2023-05-01T02:30:59.168Z,6.95
2023-05-01T02:33:46.587Z,6.43
2023-05-01T02:36:33.589Z,5.25
2023-05-01T02:39:19.098Z,5.95
2023-05-01T02:42:06.292Z,7.13
2023-05-01T02:45:02.486Z,7.15
2023-05-01T02:47:53.002Z,5.38
2023-05-01T02:50:41.133Z,7.10
2023-05-01T02:53:27.122Z,4.03
2023-05-01T02:56:19.530Z,4.60
2023-05-01T02:59:05.164Z,5.93
2023-05-01T03:01:50.574Z,5.25
2023-05-01T03:04:36.097Z,4.72
2023-05-01T03:07:21.626Z,5.18
2023-05-01T03:10:07.961Z,5.03
2023-05-01T03:12:53.261Z,4.65
2023-05-01T03:15:39.175Z,5.70
2023-05-01T03:18:24.919Z,3.42
2023-05-01T03:21:12.648Z,5.13
2023-05-01T03:23:58.231Z,5.38
2023-05-01T03:26:43.715Z,6.80
2023-05-01T03:29:29.415Z,5.20
2023-05-01T03:32:16.507Z,4.30
2023-05-01T03:35:03.869Z,4.80
2023-05-01T03:37:49.707Z,6.20
2023-05-01T03:40:55.463Z,4.95
2023-05-01T03:43:59.766Z,5.38
2023-05-01T03:46:55.804Z,5.10
2023-05-01T03:49:45.392Z,6.57
2023-05-01T03:52:31.212Z,5.70
2023-05-01T03:55:16.853Z,5.85
2023-05-01T03:58:05.077Z,6.00
2023-05-01T04:00:51.114Z,5.50
2023-05-01T04:03:37.532Z,6.50
2023-05-01T04:06:23.616Z,4.05
2023-05-01T04:09:09.099Z,6.78
2023-05-01T04:11:54.559Z,5.53
2023-05-01T04:14:39.959Z,3.15
2023-05-01T04:17:25.970Z,4.90
2023-05-01T04:20:11.395Z,3.70
2023-05-01T04:22:57.678Z,4.65
2023-05-01T04:25:43.200Z,5.75
2023-05-01T04:28:32.681Z,5.57
2023-05-01T04:31:18.999Z,6.28
2023-05-01T04:34:04.932Z,5.60
2023-05-01T04:36:51.895Z,5.80
2023-05-01T04:39:38.157Z,7.38
2023-05-01T04:42:23.873Z,5.80
2023-05-01T04:45:10.321Z,5.63
2023-05-01T04:47:55.802Z,5.32
2023-05-01T04:50:41.024Z,6.50
2023-05-01T04:53:26.939Z,6.65
2023-05-01T04:56:12.558Z,5.30
2023-05-01T04:58:58.705Z,11.18
2023-05-01T05:01:46.126Z,9.15
2023-05-01T05:04:32.035Z,8.40
2023-05-01T05:07:17.409Z,7.88
2023-05-01T05:10:32.088Z,6.78
2023-05-01T05:13:36.487Z,5.63
2023-05-01T05:16:28.887Z,5.82
2023-05-01T05:19:16.333Z,5.80
2023-05-01T05:22:03.221Z,5.70
2023-05-01T05:25:04.437Z,5.20
2023-05-01T05:27:49.953Z,5.35
2023-05-01T05:30:35.518Z,5.03
2023-05-01T05:33:25.016Z,6.05
2023-05-01T05:41:45.303Z,4.53
2023-05-01T05:44:33.046Z,4.97
2023-05-01T05:47:18.877Z,5.30
2023-05-01T05:50:04.532Z,4.65
2023-05-01T05:52:51.643Z,5.57
2023-05-01T05:55:37.578Z,4.50
2023-05-01T05:58:25.316Z,4.35
2023-05-01T06:01:11.694Z,3.83
2023-05-01T06:03:58.407Z,4.93
2023-05-01T06:06:45.817Z,5.03
2023-05-01T06:09:31.267Z,3.40
2023-05-01T06:12:17.010Z,4.03
2023-05-01T06:15:03.516Z,3.85
2023-05-01T06:17:49.849Z,4.40
2023-05-01T06:20:35.434Z,5.13
2023-05-01T06:23:20.815Z,2.97
2023-05-01T06:26:32.993Z,4.07
2023-05-01T06:29:18.514Z,3.92
2023-05-01T06:32:04.403Z,4.00
2023-05-01T06:34:50.693Z,4.20
2023-05-01T06:37:38.587Z,3.78
2023-05-01T06:40:26.189Z,3.35
2023-05-01T06:43:11.591Z,3.88
2023-05-01T06:45:57.554Z,3.95
2023-05-01T06:48:43.917Z,2.88
2023-05-01T06:51:32.287Z,3.40
2023-05-01T06:54:17.974Z,3.03
2023-05-01T06:57:03.256Z,3.97
2023-05-01T06:59:48.525Z,4.10
2023-05-01T07:02:35.248Z,3.42
2023-05-01T07:05:21.088Z,2.87
2023-05-01T07:08:07.173Z,3.67
2023-05-01T07:10:53.974Z,3.60
2023-05-01T07:13:39.739Z,3.50
2023-05-01T07:16:25.487Z,3.42
2023-05-01T07:19:11.972Z,3.53
2023-05-01T07:21:59.947Z,3.70
2023-05-01T07:24:45.573Z,3.05
2023-05-01T07:27:31.754Z,3.97
2023-05-01T07:30:17.020Z,3.33
2023-05-01T07:33:03.064Z,2.78
2023-05-01T07:35:48.799Z,2.88
2023-05-01T07:38:35.030Z,3.00
2023-05-01T07:41:21.788Z,2.83
2023-05-01T07:44:07.258Z,4.05
2023-05-01T07:46:52.534Z,2.60
2023-05-01T07:49:38.676Z,3.40
2023-05-01T07:52:24.159Z,2.95
2023-05-01T07:55:10.312Z,3.35
2023-05-01T07:57:56.118Z,3.45
2023-05-01T08:00:41.679Z,2.80
2023-05-01T08:03:31.086Z,3.10
2023-05-01T08:06:16.675Z,2.22
2023-05-01T08:09:02.095Z,3.55
2023-05-01T08:11:47.824Z,2.70
2023-05-01T08:14:34.991Z,3.83
2023-05-01T08:17:21.148Z,3.42
2023-05-01T08:20:07.993Z,2.75
2023-05-01T08:22:53.291Z,2.05
2023-05-01T08:25:38.729Z,3.33
2023-05-01T08:28:24.494Z,3.20
2023-05-01T08:31:10.438Z,2.80
2023-05-01T08:33:55.847Z,2.60
2023-05-01T08:36:41.676Z,2.83
2023-05-01T08:39:28.772Z,2.83
2023-05-01T08:42:14.604Z,2.45
2023-05-01T08:45:01.681Z,2.97
2023-05-01T08:47:49.523Z,2.50
2023-05-01T08:53:24.176Z,2.38
2023-05-01T08:56:13.758Z,2.13
2023-05-01T08:59:03.331Z,2.60
2023-05-01T09:01:50.449Z,3.13
2023-05-01T09:04:41.106Z,2.75
2023-05-01T09:07:26.995Z,2.55
2023-05-01T09:10:14.156Z,2.60
2023-05-01T09:13:07.060Z,2.90
2023-05-01T09:15:52.730Z,3.00
2023-05-01T09:18:41.054Z,3.00
2023-05-01T09:21:29.179Z,2.65
2023-05-01T09:24:14.535Z,1.92
2023-05-01T09:26:59.973Z,2.65
2023-05-01T09:29:47.978Z,2.42
2023-05-01T09:32:34.342Z,2.35
2023-05-01T09:35:19.986Z,3.20
2023-05-01T09:38:05.521Z,2.70
2023-05-01T09:40:53.927Z,2.38
2023-05-01T09:43:39.819Z,2.28
2023-05-01T09:46:26.735Z,2.75
2023-05-01T09:49:12.943Z,2.45
2023-05-01T09:52:11.498Z,2.28
2023-05-01T09:55:13.945Z,2.80
2023-05-01T09:57:59.494Z,2.50
2023-05-01T10:00:49.642Z,2.85
2023-05-01T10:03:35.314Z,1.67
2023-05-01T10:06:28.711Z,2.97
2023-05-01T10:09:27.990Z,3.53
2023-05-01T10:12:24.236Z,2.88
2023-05-01T10:15:23.786Z,2.55
2023-05-01T10:18:12.104Z,2.17
2023-05-01T10:20:57.973Z,2.85
2023-05-01T10:23:43.727Z,2.55
2023-05-01T10:26:29.147Z,2.20
2023-05-01T10:29:15.318Z,1.95
2023-05-01T10:32:06.975Z,2.00
2023-05-01T10:34:58.030Z,1.92
2023-05-01T10:37:49.181Z,2.20
2023-05-01T10:40:41.252Z,2.42
2023-05-01T10:43:31.278Z,2.08
2023-05-01T10:46:19.003Z,2.83
2023-05-01T10:49:04.976Z,2.50
2023-05-01T10:52:02.574Z,2.92
2023-05-01T10:54:48.054Z,2.38
2023-05-01T10:57:46.425Z,2.40
2023-05-01T11:00:34.232Z,2.20
2023-05-01T11:03:23.129Z,3.00
2023-05-01T11:06:08.836Z,2.45
2023-05-01T11:08:55.065Z,3.22
2023-05-01T11:11:40.491Z,3.70
2023-05-01T11:14:26.032Z,2.13
2023-05-01T11:17:11.457Z,2.50
2023-05-01T11:19:56.860Z,2.10
2023-05-01T11:22:48.554Z,2.20
2023-05-01T11:25:34.226Z,2.20
2023-05-01T11:28:21.561Z,2.38
2023-05-01T11:33:55.848Z,1.77
2023-05-01T11:36:51.921Z,2.53
2023-05-01T11:39:37.836Z,2.13
2023-05-01T11:42:23.123Z,2.30
2023-05-01T11:45:12.563Z,2.42
2023-05-01T11:48:00.563Z,2.33
2023-05-01T11:50:48.228Z,2.03
2023-05-01T11:53:33.530Z,2.13
2023-05-01T11:56:27.058Z,2.30
2023-05-01T11:59:17.997Z,2.45
2023-05-01T12:02:03.594Z,2.38
2023-05-01T12:04:49.516Z,2.63
2023-05-01T12:07:37.574Z,2.47
2023-05-01T12:10:23.471Z,1.75
2023-05-01T12:13:10.836Z,1.98
2023-05-01T12:15:56.964Z,2.17
2023-05-01T12:18:43.260Z,1.92
2023-05-01T12:21:28.765Z,2.40
2023-05-01T12:24:16.974Z,1.90
2023-05-01T12:27:03.654Z,2.05
2023-05-01T12:29:49.621Z,2.17
2023-05-01T12:32:35.404Z,1.88
2023-05-01T12:35:21.386Z,2.55
2023-05-01T12:38:21.298Z,2.15
2023-05-01T12:41:09.518Z,2.45
2023-05-01T12:43:54.854Z,2.25
2023-05-01T12:46:40.337Z,1.90
2023-05-01T12:49:27.320Z,2.40
2023-05-01T12:52:12.961Z,2.07
2023-05-01T12:55:06.305Z,2.10
2023-05-01T12:57:53.867Z,1.92
2023-05-01T13:06:36.341Z,1.80
2023-05-01T13:09:32.813Z,2.00
2023-05-01T13:12:18.658Z,2.22
2023-05-01T13:15:04.543Z,2.60
2023-05-01T13:17:50.653Z,2.08
2023-05-01T13:20:39.063Z,1.73
2023-05-01T13:23:24.479Z,2.20
2023-05-01T13:26:13.116Z,1.90
2023-05-01T13:29:00.157Z,1.92
2023-05-01T13:31:46.129Z,1.95
2023-05-01T13:34:33.657Z,2.22
2023-05-01T13:37:19.261Z,1.63
2023-05-01T13:40:05.296Z,1.77
2023-05-01T13:42:53.246Z,2.50
2023-05-01T13:45:38.644Z,2.20
2023-05-01T13:48:24.855Z,1.92
2023-05-01T13:51:12.873Z,2.50
2023-05-01T13:53:58.586Z,2.00
2023-05-01T13:56:44.049Z,1.90
2023-05-01T13:59:40.459Z,2.60
2023-05-01T14:02:30.036Z,2.22
2023-05-01T14:05:16.332Z,1.77
2023-05-01T14:08:02.306Z,1.63
2023-05-01T14:10:48.473Z,1.92
2023-05-01T14:13:36.218Z,2.35
2023-05-01T14:16:27.209Z,1.60
2023-05-01T14:19:16.150Z,1.98
2023-05-01T14:22:01.616Z,1.95
2023-05-01T14:24:47.043Z,2.17
2023-05-01T14:27:33.542Z,1.98
2023-05-01T14:30:33.760Z,2.00
2023-05-01T14:33:19.665Z,2.38
2023-05-01T14:36:05.323Z,1.92
2023-05-01T14:38:51.808Z,2.15
2023-05-01T14:41:42.323Z,2.00
2023-05-01T14:44:30.511Z,2.08
2023-05-01T14:47:21.759Z,2.00
2023-05-01T14:50:07.720Z,2.20
2023-05-01T14:52:57.823Z,2.30
2023-05-01T14:55:43.677Z,1.98
2023-05-01T14:58:29.421Z,2.65
2023-05-01T15:01:15.222Z,2.40
2023-05-01T15:04:03.426Z,2.47
2023-05-01T15:06:50.182Z,2.45
2023-05-01T15:09:35.781Z,2.00
2023-05-01T15:12:21.335Z,2.00
2023-05-01T15:15:07.336Z,2.13
2023-05-01T15:17:53.000Z,2.45
2023-05-01T15:20:38.193Z,2.58
2023-05-01T15:23:25.116Z,2.15
2023-05-01T15:26:11.068Z,2.67
2023-05-01T15:28:56.466Z,2.55
2023-05-01T15:31:42.399Z,2.03
2023-05-01T15:34:28.757Z,2.47
2023-05-01T15:37:14.377Z,2.25
2023-05-01T15:40:00.155Z,2.45
2023-05-01T15:42:48.083Z,2.15
2023-05-01T15:45:33.745Z,2.58
2023-05-01T15:48:19.552Z,2.10
2023-05-01T15:51:05.043Z,2.40
2023-05-01T15:53:50.447Z,2.33
2023-05-01T15:56:37.311Z,2.83
2023-05-01T15:59:22.874Z,3.17
2023-05-01T16:02:08.955Z,4.97
2023-05-01T16:04:54.488Z,2.85
2023-05-01T16:07:40.360Z,2.65
2023-05-01T16:10:25.853Z,3.50
2023-05-01T16:13:11.371Z,2.67
2023-05-01T16:15:57.175Z,3.25
2023-05-01T16:18:42.938Z,3.72
2023-05-01T16:21:28.778Z,3.58
2023-05-01T16:24:14.926Z,3.50
2023-05-01T16:27:00.970Z,3.10
2023-05-01T16:29:46.653Z,2.83
2023-05-01T16:32:32.192Z,3.08
2023-05-01T16:35:18.439Z,2.70
2023-05-01T16:38:05.190Z,2.92
2023-05-01T16:40:50.710Z,2.50
2023-05-01T16:43:36.243Z,2.33
2023-05-01T16:46:22.182Z,2.28
2023-05-01T16:49:11.442Z,3.00
2023-05-01T16:51:58.304Z,3.28
2023-05-01T16:54:44.245Z,2.70
2023-05-01T16:57:29.566Z,2.67
2023-05-01T17:00:16.471Z,2.25
2023-05-01T17:03:02.258Z,2.17
2023-05-01T17:05:47.916Z,2.05
2023-05-01T17:08:33.499Z,2.67
2023-05-01T17:11:19.060Z,2.40
2023-05-01T17:14:04.631Z,2.35
2023-05-01T17:16:50.598Z,2.20
2023-05-01T17:19:39.003Z,2.47
2023-05-01T17:22:25.492Z,2.90
2023-05-01T17:25:12.355Z,2.25
2023-05-01T17:27:59.166Z,2.70
2023-05-01T17:30:44.876Z,2.47
2023-05-01T17:33:31.137Z,2.80
2023-05-01T17:36:16.836Z,2.90
2023-05-01T17:39:02.339Z,2.85
2023-05-01T17:41:49.415Z,3.25
2023-05-01T17:44:35.279Z,2.88
2023-05-01T17:47:21.666Z,2.70
2023-05-01T17:50:13.060Z,3.75
2023-05-01T17:52:58.978Z,2.92
2023-05-01T17:55:44.368Z,2.72
2023-05-01T17:58:29.853Z,3.45
2023-05-01T18:01:15.642Z,3.70
2023-05-01T18:04:01.850Z,4.10
2023-05-01T18:06:47.403Z,3.22
2023-05-01T18:09:33.160Z,3.65
2023-05-01T18:12:19.138Z,3.30
2023-05-01T18:15:04.633Z,3.70
2023-05-01T18:17:50.740Z,3.67
2023-05-01T18:20:36.687Z,3.63
2023-05-01T18:23:21.934Z,3.78
2023-05-01T18:26:08.261Z,3.75
2023-05-01T18:28:54.390Z,3.90
2023-05-01T18:31:40.184Z,4.13
2023-05-01T18:34:25.694Z,3.47
2023-05-01T18:37:10.951Z,3.65
2023-05-01T18:39:56.856Z,3.88
2023-05-01T18:42:43.594Z,3.58
2023-05-01T18:45:28.989Z,3.67
2023-05-01T18:48:14.599Z,4.07
2023-05-01T18:51:08.398Z,3.13
2023-05-01T18:53:54.764Z,4.30
2023-05-01T18:56:40.062Z,3.42
2023-05-01T18:59:30.852Z,3.50
2023-05-01T19:02:16.423Z,4.38
2023-05-01T19:05:02.245Z,3.70
2023-05-01T19:07:48.366Z,4.20
2023-05-01T19:10:35.463Z,3.45
2023-05-01T19:13:23.556Z,3.63
2023-05-01T19:16:09.133Z,4.05
2023-05-01T19:18:54.976Z,3.40
2023-05-01T19:21:40.247Z,3.20
2023-05-01T19:24:25.754Z,3.05
2023-05-01T19:27:11.708Z,3.53
2023-05-01T19:30:00.772Z,3.80
2023-05-01T19:32:47.457Z,4.03
2023-05-01T19:35:32.823Z,3.65
2023-05-01T19:38:18.417Z,4.07
2023-05-01T19:41:04.093Z,3.90
2023-05-01T19:43:49.367Z,4.00
2023-05-01T19:46:34.871Z,4.22
2023-05-01T19:49:20.297Z,6.03
2023-05-01T19:52:06.378Z,3.70
2023-05-01T19:54:52.301Z,4.55
2023-05-01T19:57:37.652Z,4.07
2023-05-01T20:00:23.121Z,3.92
2023-05-01T20:03:09.497Z,4.35
2023-05-01T20:05:55.666Z,5.90
2023-05-01T20:08:41.883Z,3.83
2023-05-01T20:11:27.771Z,3.83
2023-05-01T20:14:13.654Z,3.45
2023-05-01T20:16:59.065Z,4.75
2023-05-01T20:19:44.993Z,4.72
2023-05-01T20:22:30.387Z,4.18
2023-05-01T20:25:15.782Z,4.97
2023-05-01T20:28:03.390Z,4.60
2023-05-01T20:30:49.176Z,4.90
2023-05-01T20:33:34.930Z,4.28
2023-05-01T20:36:20.554Z,3.95
2023-05-01T20:39:06.112Z,4.15
2023-05-01T20:41:51.789Z,5.03
2023-05-01T20:44:37.311Z,4.65
2023-05-01T20:47:23.200Z,5.13
2023-05-01T20:50:09.212Z,4.80
2023-05-01T20:52:56.326Z,4.28
2023-05-01T20:55:41.975Z,4.78
2023-05-01T20:58:27.702Z,4.63
2023-05-01T21:01:13.087Z,4.75
2023-05-01T21:04:01.575Z,4.57
2023-05-01T21:06:47.567Z,4.28
2023-05-01T21:09:33.628Z,4.80
2023-05-01T21:12:19.323Z,5.72
2023-05-01T21:15:05.623Z,4.75
2023-05-01T21:17:51.119Z,5.03
2023-05-01T21:20:36.570Z,4.75
2023-05-01T21:23:26.301Z,5.57
2023-05-01T21:26:14.070Z,4.90
2023-05-01T21:28:59.573Z,5.78
2023-05-01T21:31:45.404Z,5.28
2023-05-01T21:34:31.197Z,5.18
2023-05-01T21:37:18.695Z,6.00
2023-05-01T21:40:09.098Z,5.63
2023-05-01T21:42:55.213Z,6.78
2023-05-01T21:45:44.449Z,5.72
2023-05-01T21:48:34.327Z,5.60
2023-05-01T21:51:28.549Z,5.80
2023-05-01T21:54:18.359Z,5.97
2023-05-01T21:57:07.712Z,5.18
2023-05-01T21:59:56.670Z,6.05
2023-05-01T22:02:44.822Z,5.53
2023-05-01T22:05:32.060Z,5.57
2023-05-01T22:08:17.648Z,5.75
2023-05-01T22:11:04.129Z,5.65
2023-05-01T22:13:50.450Z,5.35
2023-05-01T22:16:35.808Z,5.55
2023-05-01T22:19:20.996Z,5.75
2023-05-01T22:22:06.474Z,6.32
2023-05-01T22:24:51.851Z,6.55
2023-05-01T22:27:37.578Z,5.03
2023-05-01T22:30:23.201Z,5.43
2023-05-01T22:33:08.977Z,5.55
2023-05-01T22:35:55.054Z,5.00
2023-05-01T22:38:40.659Z,5.15
2023-05-01T22:41:26.818Z,6.03
2023-05-01T22:44:12.317Z,5.00
2023-05-01T22:46:59.514Z,6.00
2023-05-01T22:49:44.972Z,5.65
2023-05-01T22:52:30.713Z,5.97
2023-05-01T22:55:16.516Z,5.30
2023-05-01T22:58:02.294Z,4.90
2023-05-01T23:00:47.946Z,5.57
2023-05-01T23:03:35.696Z,6.03
2023-05-01T23:06:22.705Z,5.95
2023-05-01T23:09:08.528Z,5.60
2023-05-01T23:11:54.239Z,5.30
2023-05-01T23:14:45.273Z,5.40
2023-05-01T23:17:34.693Z,5.43
2023-05-01T23:20:22.853Z,5.43
2023-05-01T23:23:13.848Z,5.20
2023-05-01T23:25:59.399Z,5.22
2023-05-01T23:28:45.343Z,6.10
2023-05-01T23:31:30.873Z,5.28
2023-05-01T23:34:17.508Z,5.22
2023-05-01T23:37:03.568Z,6.30
2023-05-01T23:39:49.405Z,6.20
2023-05-01T23:42:36.968Z,5.68
2023-05-01T23:45:22.603Z,6.32
2023-05-01T23:48:08.001Z,5.72
2023-05-01T23:50:53.674Z,7.03
2023-05-01T23:53:39.116Z,5.43
2023-05-01T23:56:24.428Z,6.20
2023-05-01T23:59:09.979Z,5.38
